Time;durP1;ratioP1;P1;durP2;ratioP2;P2;SDS_P1;SDS_P2;PMS_P1;PMS_P2;Temp;Humidity;BMP_temperature;BMP_pressure;BME280_temperature;BME280_humidity;BME280_pressure;Samples;Min_cycle;Max_cycle;Signal;HPM_P1;HPM_P2
2022/11/29 00:00:30;;;;;;;11.40;8.50;;;;;;;;;;5078667;28;20025;-65
2022/11/29 00:02:56;;;;;;;14.85;9.55;;;;;;;;;;5060607;28;20029;-64
2022/11/29 00:05:21;;;;;;;12.45;9.27;;;;;;;;;;5078883;28;20024;-64
2022/11/29 00:07:47;;;;;;;13.25;8.82;;;;;;;;;;5078638;28;20025;-64
2022/11/29 00:10:12;;;;;;;12.73;8.85;;;;;;;;;;5078611;28;20426;-65
2022/11/29 00:12:38;;;;;;;12.85;9.13;;;;;;;;;;5078487;28;20035;-65
2022/11/29 00:15:04;;;;;;;13.95;8.68;;;;;;;;;;5078562;28;20427;-65
2022/11/29 00:17:29;;;;;;;16.00;8.98;;;;;;;;;;5078331;28;20041;-65
2022/11/29 00:19:55;;;;;;;12.60;9.20;;;;;;;;;;5078482;28;20016;-64
2022/11/29 00:22:23;;;;;;;14.35;9.00;;;;;;;;;;5078763;28;20484;-65
2022/11/29 00:24:50;;;;;;;13.70;9.18;;;;;;;;;;5078399;28;20380;-65
2022/11/29 00:27:16;;;;;;;12.40;8.88;;;;;;;;;;5078469;28;20031;-65
2022/11/29 00:29:42;;;;;;;12.65;8.98;;;;;;;;;;5078497;28;20557;-65
2022/11/29 00:32:07;;;;;;;13.73;9.20;;;;;;;;;;5078321;28;20024;-65
2022/11/29 00:34:33;;;;;;;14.00;9.35;;;;;;;;;;5078329;28;20021;-65
2022/11/29 00:36:58;;;;;;;13.45;8.98;;;;;;;;;;5070902;28;20021;-65
2022/11/29 00:39:24;;;;;;;13.38;9.27;;;;;;;;;;5073532;28;20020;-65
2022/11/29 00:41:49;;;;;;;12.57;8.75;;;;;;;;;;5073891;28;20070;-66
2022/11/29 00:44:15;;;;;;;17.92;8.93;;;;;;;;;;5074075;28;20012;-65
2022/11/29 00:46:41;;;;;;;13.15;9.00;;;;;;;;;;5073667;28;20039;-65
2022/11/29 00:49:06;;;;;;;13.82;9.13;;;;;;;;;;5073989;28;20266;-65
2022/11/29 00:51:32;;;;;;;13.07;8.48;;;;;;;;;;5074877;28;20110;-65
2022/11/29 00:53:57;;;;;;;13.85;9.10;;;;;;;;;;5073614;28;20404;-65
2022/11/29 00:56:23;;;;;;;15.07;9.23;;;;;;;;;;5056734;28;20123;-65
2022/11/29 00:58:48;;;;;;;13.63;9.13;;;;;;;;;;5074783;28;20100;-64
2022/11/29 01:01:14;;;;;;;12.20;9.02;;;;;;;;;;5074685;28;20027;-65
2022/11/29 01:03:40;;;;;;;12.80;8.52;;;;;;;;;;5073864;28;20037;-65
2022/11/29 01:06:08;;;;;;;11.25;8.38;;;;;;;;;;5074981;28;20031;-65
2022/11/29 01:08:34;;;;;;;14.60;9.40;;;;;;;;;;5074700;28;20109;-64
2022/11/29 01:11:06;;;;;;;14.45;9.10;;;;;;;;;;5074574;28;20038;-65
2022/11/29 01:13:32;;;;;;;13.13;9.00;;;;;;;;;;5074431;28;20028;-64
2022/11/29 01:15:57;;;;;;;13.13;9.05;;;;;;;;;;5074557;28;20031;-65
2022/11/29 01:18:23;;;;;;;11.90;9.07;;;;;;;;;;5074265;28;20036;-64
2022/11/29 01:21:00;;;;;;;11.63;8.88;;;;;;;;;;5074441;28;20476;-64
2022/11/29 01:23:27;;;;;;;13.15;8.68;;;;;;;;;;5074703;28;20025;-64
2022/11/29 01:26:01;;;;;;;12.85;8.95;;;;;;;;;;5074366;28;20024;-64
2022/11/29 01:28:27;;;;;;;14.05;9.75;;;;;;;;;;5074286;28;20048;-64
2022/11/29 01:30:54;;;;;;;11.55;8.88;;;;;;;;;;5074204;28;20025;-64
2022/11/29 01:33:19;;;;;;;13.88;8.98;;;;;;;;;;5074141;28;20039;-65
2022/11/29 01:35:53;;;;;;;13.57;9.30;;;;;;;;;;5074129;28;20024;-65
2022/11/29 01:38:19;;;;;;;13.68;8.95;;;;;;;;;;5074349;28;20035;-65
2022/11/29 01:41:04;;;;;;;12.30;8.90;;;;;;;;;;5074260;28;20404;-65
2022/11/29 01:43:30;;;;;;;13.43;9.82;;;;;;;;;;5073933;28;20028;-65
2022/11/29 01:45:56;;;;;;;11.45;8.75;;;;;;;;;;5073865;28;20024;-65
2022/11/29 01:48:26;;;;;;;12.40;8.85;;;;;;;;;;5055774;28;20064;-65
2022/11/29 01:50:53;;;;;;;12.23;9.15;;;;;;;;;;5073835;28;20491;-64
2022/11/29 01:53:19;;;;;;;13.20;8.90;;;;;;;;;;5073719;28;20055;-65
2022/11/29 01:55:52;;;;;;;13.27;8.65;;;;;;;;;;5073931;28;20028;-65
2022/11/29 01:58:19;;;;;;;13.65;9.50;;;;;;;;;;5073649;28;20044;-65
2022/11/29 02:00:45;;;;;;;13.23;9.63;;;;;;;;;;5073516;28;20058;-65
2022/11/29 02:03:14;;;;;;;11.65;8.68;;;;;;;;;;5073557;28;20139;-65
2022/11/29 02:05:43;;;;;;;13.05;9.65;;;;;;;;;;5073513;28;20112;-64
2022/11/29 02:08:12;;;;;;;11.70;8.88;;;;;;;;;;5073410;28;20025;-65
2022/11/29 02:11:09;;;;;;;13.68;8.98;;;;;;;;;;5073372;28;20357;-65
2022/11/29 02:13:58;;;;;;;13.70;9.65;;;;;;;;;;5073166;28;20090;-65
2022/11/29 02:16:36;;;;;;;14.13;9.90;;;;;;;;;;5073095;28;20033;-65
2022/11/29 02:19:40;;;;;;;12.38;9.30;;;;;;;;;;5055465;28;20048;-65
2022/11/29 02:22:19;;;;;;;13.23;9.38;;;;;;;;;;5073229;28;20040;-64
2022/11/29 02:25:16;;;;;;;12.07;8.57;;;;;;;;;;5073478;28;20020;-64
2022/11/29 02:28:12;;;;;;;11.57;8.90;;;;;;;;;;5073377;28;20085;-65
2022/11/29 02:31:16;;;;;;;14.07;8.95;;;;;;;;;;5073136;28;20023;-64
2022/11/29 02:34:03;;;;;;;14.05;8.75;;;;;;;;;;5073061;28;20089;-64
2022/11/29 02:36:42;;;;;;;12.10;8.70;;;;;;;;;;5072967;28;20082;-65
2022/11/29 02:39:22;;;;;;;11.77;8.55;;;;;;;;;;5073196;28;20028;-64
2022/11/29 02:42:17;;;;;;;12.20;8.88;;;;;;;;;;5072884;28;20353;-64
2022/11/29 02:45:13;;;;;;;13.15;8.80;;;;;;;;;;5065221;28;20044;-64
2022/11/29 02:47:58;;;;;;;13.38;9.07;;;;;;;;;;5072837;28;20036;-64
2022/11/29 02:50:49;;;;;;;12.00;8.43;;;;;;;;;;5072768;28;20446;-64
2022/11/29 02:53:26;;;;;;;12.93;8.55;;;;;;;;;;5072535;28;20043;-65
2022/11/29 02:56:14;;;;;;;12.98;8.77;;;;;;;;;;5072682;28;20464;-64
2022/11/29 02:58:49;;;;;;;12.43;8.88;;;;;;;;;;5072673;28;20112;-64
2022/11/29 03:01:52;;;;;;;12.15;8.77;;;;;;;;;;5054684;28;20051;-65
2022/11/29 03:04:25;;;;;;;12.55;8.70;;;;;;;;;;5072822;28;20426;-64
2022/11/29 03:07:11;;;;;;;12.75;8.75;;;;;;;;;;5072550;28;20026;-64
2022/11/29 03:10:00;;;;;;;11.63;8.15;;;;;;;;;;5072487;28;20027;-65
2022/11/29 03:12:31;;;;;;;11.77;8.82;;;;;;;;;;5072401;28;20040;-64
2022/11/29 03:15:00;;;;;;;11.20;8.32;;;;;;;;;;5072547;28;20029;-64
2022/11/29 03:17:45;;;;;;;13.27;8.90;;;;;;;;;;5054260;28;20056;-64
2022/11/29 03:20:36;;;;;;;11.40;8.50;;;;;;;;;;5072408;28;20029;-65
2022/11/29 03:23:20;;;;;;;13.35;9.38;;;;;;;;;;5072592;28;20029;-65
2022/11/29 03:25:55;;;;;;;11.45;8.15;;;;;;;;;;5072435;28;20021;-65
2022/11/29 03:28:28;;;;;;;12.90;9.05;;;;;;;;;;5072623;28;20415;-65
2022/11/29 03:31:19;;;;;;;10.82;8.13;;;;;;;;;;5072126;28;20028;-64
2022/11/29 03:33:49;;;;;;;11.98;8.73;;;;;;;;;;5072480;28;20032;-64
2022/11/29 03:36:35;;;;;;;11.27;8.57;;;;;;;;;;5072221;28;20036;-65
2022/11/29 03:39:06;;;;;;;14.30;8.75;;;;;;;;;;5072129;28;20067;-64
2022/11/29 03:41:39;;;;;;;11.35;8.45;;;;;;;;;;5072223;28;20098;-65
2022/11/29 03:44:24;;;;;;;12.18;8.60;;;;;;;;;;5054090;28;20021;-64
2022/11/29 03:46:57;;;;;;;11.32;8.63;;;;;;;;;;5072094;28;20522;-64
2022/11/29 03:49:46;;;;;;;13.07;8.98;;;;;;;;;;5072182;28;20032;-64
2022/11/29 03:52:23;;;;;;;12.02;8.15;;;;;;;;;;5063583;28;20125;-65
2022/11/29 03:55:12;;;;;;;10.32;8.40;;;;;;;;;;5072061;28;20089;-65
2022/11/29 03:58:14;;;;;;;11.45;8.70;;;;;;;;;;5072090;28;20025;-64
2022/11/29 04:00:49;;;;;;;10.95;8.23;;;;;;;;;;5071985;28;20035;-65
2022/11/29 04:03:31;;;;;;;11.13;8.45;;;;;;;;;;5071963;28;20104;-65
2022/11/29 04:06:14;;;;;;;11.73;8.40;;;;;;;;;;5072038;28;20090;-65
2022/11/29 04:09:17;;;;;;;12.55;8.40;;;;;;;;;;5071937;28;20032;-65
2022/11/29 04:12:17;;;;;;;11.65;8.88;;;;;;;;;;5071820;28;20047;-65
2022/11/29 04:14:51;;;;;;;11.63;8.70;;;;;;;;;;5075755;28;20544;-64
2022/11/29 04:17:38;;;;;;;10.38;7.97;;;;;;;;;;5075527;28;20079;-64
2022/11/29 04:20:41;;;;;;;10.98;8.25;;;;;;;;;;5075594;28;20070;-65
2022/11/29 04:23:17;;;;;;;10.68;8.65;;;;;;;;;;5075496;28;20380;-65
2022/11/29 04:25:42;;;;;;;11.88;8.55;;;;;;;;;;5075502;28;20111;-65
2022/11/29 04:28:14;;;;;;;12.63;9.27;;;;;;;;;;5075441;28;20067;-65
2022/11/29 04:31:10;;;;;;;12.20;8.60;;;;;;;;;;5075371;28;20020;-65
2022/11/29 04:34:20;;;;;;;11.50;8.45;;;;;;;;;;5075148;28;20032;-65
2022/11/29 04:37:01;;;;;;;;;;;;;;;;;;5075976;28;20107;-65
2022/11/29 04:39:44;;;;;;;;;;;;;;;;;;5075734;28;19920;-65
2022/11/29 04:42:12;;;;;;;11.18;8.00;;;;;;;;;;5075209;28;19916;-65
2022/11/29 04:45:16;;;;;;;12.40;7.95;;;;;;;;;;5075315;28;20439;-65
2022/11/29 04:47:58;;;;;;;10.27;8.02;;;;;;;;;;5043997;28;20453;-65
2022/11/29 04:50:34;;;;;;;12.50;8.43;;;;;;;;;;5074915;28;20024;-65
2022/11/29 04:53:23;;;;;;;10.57;7.57;;;;;;;;;;5075082;28;20021;-65
2022/11/29 04:56:09;;;;;;;10.65;7.82;;;;;;;;;;5074988;28;20433;-65
2022/11/29 04:58:53;;;;;;;12.07;8.00;;;;;;;;;;5033734;28;20044;-65
2022/11/29 05:01:36;;;;;;;11.38;8.60;;;;;;;;;;5074766;28;20431;-64
2022/11/29 05:04:05;;;;;;;11.35;8.05;;;;;;;;;;5056720;28;20123;-64
2022/11/29 05:06:39;;;;;;;9.55;7.88;;;;;;;;;;5074633;28;20021;-64
2022/11/29 05:09:20;;;;;;;11.70;7.90;;;;;;;;;;5074649;28;20021;-65
2022/11/29 05:11:52;;;;;;;11.13;7.85;;;;;;;;;;5074797;28;20430;-65
2022/11/29 05:14:32;;;;;;;10.45;8.13;;;;;;;;;;5074644;28;20116;-65
2022/11/29 05:17:31;;;;;;;11.48;8.25;;;;;;;;;;5074257;28;20084;-65
2022/11/29 05:20:31;;;;;;;10.05;7.80;;;;;;;;;;5072568;28;20050;-66
2022/11/29 05:23:18;;;;;;;11.18;7.68;;;;;;;;;;5051480;28;20024;-66
2022/11/29 05:26:29;;;;;;;11.18;7.15;;;;;;;;;;5069750;28;20020;-65
2022/11/29 05:29:23;;;;;;;11.35;7.72;;;;;;;;;;5053440;28;20477;-65
2022/11/29 05:32:10;;;;;;;11.50;8.52;;;;;;;;;;5069664;28;20036;-65
2022/11/29 05:34:44;;;;;;;11.75;8.50;;;;;;;;;;5074146;28;20533;-65
2022/11/29 05:37:37;;;;;;;11.85;8.10;;;;;;;;;;5074066;28;20051;-65
2022/11/29 05:40:33;;;;;;;12.07;7.47;;;;;;;;;;5073972;28;20029;-65
2022/11/29 05:43:01;;;;;;;11.27;8.25;;;;;;;;;;5071754;28;20024;-64
2022/11/29 05:45:42;;;;;;;12.63;8.20;;;;;;;;;;5070988;28;20060;-65
2022/11/29 05:49:02;;;;;;;10.10;7.47;;;;;;;;;;5070998;28;20032;-65
2022/11/29 05:52:05;;;;;;;11.70;8.13;;;;;;;;;;5026340;28;20499;-65
2022/11/29 05:54:46;;;;;;;11.27;7.47;;;;;;;;;;5070642;28;20077;-65
2022/11/29 05:57:40;;;;;;;11.63;7.57;;;;;;;;;;5070721;28;20023;-65
2022/11/29 06:00:06;;;;;;;11.88;8.45;;;;;;;;;;5054314;28;20032;-66
2022/11/29 06:02:41;;;;;;;12.32;8.38;;;;;;;;;;5072846;28;20031;-65
2022/11/29 06:05:22;;;;;;;11.75;8.00;;;;;;;;;;5073459;28;20158;-65
2022/11/29 06:07:51;;;;;;;11.10;8.15;;;;;;;;;;5073253;28;20070;-65
2022/11/29 06:10:19;;;;;;;13.20;8.43;;;;;;;;;;5073179;28;20029;-65
2022/11/29 06:13:07;;;;;;;13.65;8.50;;;;;;;;;;5053635;28;20044;-66
2022/11/29 06:15:51;;;;;;;11.15;8.02;;;;;;;;;;5072026;28;20048;-64
2022/11/29 06:18:54;;;;;;;11.60;8.30;;;;;;;;;;5072490;28;20519;-65
2022/11/29 06:21:26;;;;;;;11.30;8.18;;;;;;;;;;5073282;28;20111;-64
2022/11/29 06:23:57;;;;;;;9.80;7.85;;;;;;;;;;5073042;28;20055;-64
2022/11/29 06:26:50;;;;;;;11.63;8.45;;;;;;;;;;5073250;28;20047;-65
2022/11/29 06:29:27;;;;;;;11.52;7.82;;;;;;;;;;5072860;28;20410;-64
2022/11/29 06:32:21;;;;;;;11.60;7.90;;;;;;;;;;5072933;28;20031;-64
2022/11/29 06:35:00;;;;;;;12.45;7.70;;;;;;;;;;5072560;28;20040;-64
2022/11/29 06:37:39;;;;;;;12.98;8.60;;;;;;;;;;5072745;28;20027;-64
2022/11/29 06:40:09;;;;;;;10.02;7.82;;;;;;;;;;5073072;28;20388;-64
2022/11/29 06:42:34;;;;;;;10.77;7.82;;;;;;;;;;5072767;28;20028;-64
2022/11/29 06:45:00;;;;;;;10.55;7.40;;;;;;;;;;5053861;28;20058;-65
2022/11/29 06:47:32;;;;;;;11.50;7.82;;;;;;;;;;5072525;28;20028;-64
2022/11/29 06:50:13;;;;;;;12.77;7.88;;;;;;;;;;5071859;28;20021;-64
2022/11/29 06:53:06;;;;;;;9.45;7.32;;;;;;;;;;5072561;28;20039;-64
2022/11/29 06:56:07;;;;;;;11.35;8.05;;;;;;;;;;5072780;28;20100;-64
2022/11/29 06:58:33;;;;;;;11.40;7.85;;;;;;;;;;5010660;28;20153;-65
2022/11/29 07:01:04;;;;;;;9.77;7.70;;;;;;;;;;5059685;28;20404;-65
2022/11/29 07:03:32;;;;;;;11.43;7.97;;;;;;;;;;5072917;28;20028;-65
2022/11/29 07:06:22;;;;;;;11.80;8.20;;;;;;;;;;5072801;28;20142;-64
2022/11/29 07:08:52;;;;;;;11.45;8.05;;;;;;;;;;5072545;28;20028;-64
2022/11/29 07:11:18;;;;;;;10.48;7.97;;;;;;;;;;5072978;28;20103;-64
2022/11/29 07:13:44;;;;;;;10.55;7.90;;;;;;;;;;5072372;28;20111;-64
2022/11/29 07:17:01;;;;;;;11.73;8.30;;;;;;;;;;5072286;28;20105;-64
2022/11/29 07:19:52;;;;;;;11.30;7.53;;;;;;;;;;5013127;28;20421;-64
2022/11/29 07:22:39;;;;;;;9.95;7.47;;;;;;;;;;5072228;28;20447;-65
2022/11/29 07:25:23;;;;;;;12.60;8.38;;;;;;;;;;5072222;28;20384;-64
2022/11/29 07:27:54;;;;;;;11.23;7.57;;;;;;;;;;5072578;28;20021;-64
2022/11/29 07:30:51;;;;;;;10.82;7.82;;;;;;;;;;5072096;28;20048;-64
2022/11/29 07:33:28;;;;;;;9.90;7.22;;;;;;;;;;5072457;28;20369;-64
2022/11/29 07:36:30;;;;;;;10.85;7.63;;;;;;;;;;5072218;28;20048;-64
2022/11/29 07:39:24;;;;;;;10.25;7.75;;;;;;;;;;5072543;28;20024;-64
2022/11/29 07:42:04;;;;;;;9.98;7.53;;;;;;;;;;5072219;28;20433;-64
2022/11/29 07:44:32;;;;;;;;;;;;;;;;;;5054554;28;20115;-64
2022/11/29 07:46:58;;;;;;;12.27;7.85;;;;;;;;;;5073369;28;19913;-65
2022/11/29 07:49:24;;;;;;;10.75;7.85;;;;;;;;;;5076300;28;20032;-64
2022/11/29 07:51:49;;;;;;;10.65;7.45;;;;;;;;;;5076298;28;20384;-64
2022/11/29 07:54:17;;;;;;;10.73;7.88;;;;;;;;;;5057969;28;20503;-64
2022/11/29 07:56:43;;;;;;;11.60;7.22;;;;;;;;;;5076056;28;20494;-64
2022/11/29 07:59:11;;;;;;;11.23;8.38;;;;;;;;;;5076184;28;20033;-65
2022/11/29 08:01:38;;;;;;;10.02;7.57;;;;;;;;;;5075809;28;20027;-64
2022/11/29 08:04:05;;;;;;;10.32;7.63;;;;;;;;;;5075710;28;20035;-64
2022/11/29 08:06:31;;;;;;;10.68;7.90;;;;;;;;;;5075755;28;20488;-64
2022/11/29 08:08:57;;;;;;;10.18;7.55;;;;;;;;;;5075722;28;20042;-65
2022/11/29 08:11:23;;;;;;;10.40;7.57;;;;;;;;;;5075873;28;20435;-64
2022/11/29 08:13:49;;;;;;;9.30;6.97;;;;;;;;;;5075619;28;20056;-65
2022/11/29 08:16:18;;;;;;;9.93;7.78;;;;;;;;;;5075570;28;20026;-64
2022/11/29 08:18:44;;;;;;;9.65;7.68;;;;;;;;;;5075484;28;20024;-64
2022/11/29 08:21:09;;;;;;;10.93;7.95;;;;;;;;;;5075504;28;20024;-64
2022/11/29 08:23:35;;;;;;;9.77;7.35;;;;;;;;;;5075495;28;20024;-65
2022/11/29 08:26:02;;;;;;;11.10;7.65;;;;;;;;;;5075451;28;20498;-64
2022/11/29 08:28:28;;;;;;;11.85;8.35;;;;;;;;;;5075454;28;20372;-64
2022/11/29 08:31:05;;;;;;;12.50;8.55;;;;;;;;;;5075600;28;20435;-64
2022/11/29 08:33:34;;;;;;;10.63;7.50;;;;;;;;;;5075222;28;20115;-64
2022/11/29 08:36:11;;;;;;;9.80;7.35;;;;;;;;;;5075237;28;20073;-65
2022/11/29 08:38:36;;;;;;;10.38;7.70;;;;;;;;;;5075219;28;20476;-64
2022/11/29 08:41:07;;;;;;;9.60;7.38;;;;;;;;;;5075120;28;20035;-65
2022/11/29 08:43:33;;;;;;;10.30;7.60;;;;;;;;;;5075158;28;20031;-65
2022/11/29 08:45:58;;;;;;;16.40;8.40;;;;;;;;;;5074982;28;20024;-64
2022/11/29 08:48:24;;;;;;;11.82;8.27;;;;;;;;;;5075006;28;20025;-65
2022/11/29 08:50:51;;;;;;;12.02;8.80;;;;;;;;;;5074900;28;20029;-65
2022/11/29 08:56:01;;;;;;;10.38;7.30;;;;;;;;;;5075190;28;20027;-65
2022/11/29 08:58:27;;;;;;;10.82;7.80;;;;;;;;;;5073990;28;20025;-64
2022/11/29 09:00:52;;;;;;;11.15;7.70;;;;;;;;;;5074804;28;20074;-64
2022/11/29 09:06:15;;;;;;;13.80;7.88;;;;;;;;;;5074731;28;20051;-64
2022/11/29 09:08:43;;;;;;;10.75;7.80;;;;;;;;;;5074605;28;20043;-64
2022/11/29 09:11:12;;;;;;;9.60;7.35;;;;;;;;;;5074553;28;20023;-65
2022/11/29 09:13:48;;;;;;;11.82;8.50;;;;;;;;;;5074700;28;20032;-65
2022/11/29 09:16:17;;;;;;;9.95;7.50;;;;;;;;;;5074598;28;20036;-64
2022/11/29 09:18:43;;;;;;;10.85;8.02;;;;;;;;;;5054266;28;20091;-65
2022/11/29 09:21:11;;;;;;;10.98;7.70;;;;;;;;;;5054419;28;20021;-65
2022/11/29 09:23:36;;;;;;;10.85;7.55;;;;;;;;;;5054660;28;20362;-65
2022/11/29 09:26:03;;;;;;;11.63;7.97;;;;;;;;;;5054220;28;20108;-64
2022/11/29 09:28:29;;;;;;;11.82;7.82;;;;;;;;;;5054272;28;20052;-65
2022/11/29 09:30:54;;;;;;;9.85;7.63;;;;;;;;;;5054278;28;20021;-65
2022/11/29 09:33:21;;;;;;;10.65;7.75;;;;;;;;;;5054017;28;20036;-65
2022/11/29 09:35:47;;;;;;;10.80;7.85;;;;;;;;;;5054102;28;20024;-65
2022/11/29 09:38:13;;;;;;;9.98;7.63;;;;;;;;;;5054054;28;20029;-64
2022/11/29 09:41:02;;;;;;;9.35;7.70;;;;;;;;;;5054012;28;20033;-65
2022/11/29 09:43:37;;;;;;;13.18;7.85;;;;;;;;;;5053949;28;20064;-65
2022/11/29 09:46:21;;;;;;;10.15;8.00;;;;;;;;;;5052671;28;20025;-65
2022/11/29 09:48:55;;;;;;;11.02;7.80;;;;;;;;;;5053940;28;20036;-65
2022/11/29 09:51:35;;;;;;;10.77;7.50;;;;;;;;;;5053825;28;20229;-65
2022/11/29 09:54:19;;;;;;;10.30;7.75;;;;;;;;;;5053826;28;20037;-65
2022/11/29 09:56:47;;;;;;;11.88;8.10;;;;;;;;;;5053670;28;20029;-65
2022/11/29 09:59:17;;;;;;;10.27;7.50;;;;;;;;;;5053686;28;20079;-65
2022/11/29 10:01:47;;;;;;;10.20;7.35;;;;;;;;;;5053670;28;20029;-65
2022/11/29 10:04:18;;;;;;;10.68;7.18;;;;;;;;;;5053576;28;20107;-65
2022/11/29 10:06:50;;;;;;;11.18;7.80;;;;;;;;;;5053576;28;20078;-65
2022/11/29 10:09:23;;;;;;;10.68;8.20;;;;;;;;;;5052497;28;20048;-65
2022/11/29 10:12:01;;;;;;;9.77;7.45;;;;;;;;;;5052095;28;20025;-65
2022/11/29 10:14:33;;;;;;;9.38;7.60;;;;;;;;;;5053400;28;20036;-65
2022/11/29 10:17:15;;;;;;;11.93;8.07;;;;;;;;;;5058750;28;20078;-65
2022/11/29 10:19:47;;;;;;;11.15;7.80;;;;;;;;;;5055344;28;20071;-65
2022/11/29 10:22:37;;;;;;;11.32;7.82;;;;;;;;;;5055270;28;20115;-65
2022/11/29 10:25:05;;;;;;;;;;;;;;;;;;5073658;28;20021;-64
2022/11/29 10:27:31;;;;;;;10.10;7.82;;;;;;;;;;5073105;28;19916;-64
2022/11/29 10:29:59;;;;;;;10.50;7.57;;;;;;;;;;5055352;28;20029;-64
2022/11/29 10:32:30;;;;;;;11.82;8.20;;;;;;;;;;5072996;28;20052;-64
2022/11/29 10:34:59;;;;;;;10.80;7.53;;;;;;;;;;5073179;28;20052;-64
2022/11/29 10:37:25;;;;;;;11.68;7.78;;;;;;;;;;5072939;28;20091;-65
2022/11/29 10:40:03;;;;;;;10.35;7.90;;;;;;;;;;5072910;28;20116;-65
2022/11/29 10:45:29;;;;;;;10.25;7.43;;;;;;;;;;5072852;28;20433;-64
2022/11/29 10:48:00;;;;;;;10.82;7.75;;;;;;;;;;5072790;28;20028;-64
2022/11/29 10:50:29;;;;;;;11.15;8.25;;;;;;;;;;5073051;28;20059;-65
2022/11/29 10:53:02;;;;;;;12.13;7.97;;;;;;;;;;5054608;28;20124;-64
2022/11/29 10:55:33;;;;;;;10.30;7.55;;;;;;;;;;5054769;28;20029;-65
2022/11/29 10:58:10;;;;;;;11.10;7.57;;;;;;;;;;5072600;28;20059;-64
2022/11/29 11:00:52;;;;;;;14.40;10.05;;;;;;;;;;5072682;28;20426;-67
2022/11/29 11:03:59;;;;;;;15.85;9.40;;;;;;;;;;5054518;28;20561;-65
2022/11/29 11:06:27;;;;;;;11.98;8.55;;;;;;;;;;5072156;28;20093;-66
2022/11/29 11:09:10;;;;;;;14.05;9.15;;;;;;;;;;5066971;28;20035;-65
2022/11/29 11:11:37;;;;;;;11.85;8.00;;;;;;;;;;5070759;28;20507;-65
2022/11/29 11:14:29;;;;;;;12.18;8.25;;;;;;;;;;5070860;28;20482;-65
2022/11/29 11:17:12;;;;;;;10.52;7.63;;;;;;;;;;5070495;28;20056;-65
2022/11/29 11:19:38;;;;;;;12.25;8.23;;;;;;;;;;5070795;28;20485;-65
2022/11/29 11:22:03;;;;;;;10.32;7.97;;;;;;;;;;5070122;28;20035;-66
2022/11/29 11:24:33;;;;;;;10.68;7.97;;;;;;;;;;5070484;28;20086;-69
2022/11/29 11:27:00;;;;;;;10.48;7.57;;;;;;;;;;5060561;28;20550;-69
2022/11/29 11:29:34;;;;;;;11.73;7.68;;;;;;;;;;5079410;28;20501;-68
2022/11/29 11:32:00;;;;;;;9.90;7.57;;;;;;;;;;5076185;28;20056;-67
2022/11/29 11:34:25;;;;;;;11.75;8.13;;;;;;;;;;5079418;28;20051;-68
2022/11/29 11:36:53;;;;;;;10.35;7.90;;;;;;;;;;5070605;28;20484;-64
2022/11/29 11:39:23;;;;;;;11.27;7.78;;;;;;;;;;5070578;28;20055;-65
2022/11/29 11:44:51;;;;;;;10.73;7.80;;;;;;;;;;5070417;28;20044;-64
2022/11/29 11:47:19;;;;;;;11.43;7.75;;;;;;;;;;5070870;28;20093;-65
2022/11/29 11:50:08;;;;;;;13.25;8.35;;;;;;;;;;5070369;28;20025;-67
2022/11/29 11:52:43;;;;;;;11.18;7.97;;;;;;;;;;5038463;28;20040;-66
2022/11/29 11:55:21;;;;;;;17.65;10.57;;;;;;;;;;5070468;28;20170;-66
2022/11/29 11:58:13;;;;;;;23.92;14.75;;;;;;;;;;5070304;28;20017;-67
2022/11/29 12:00:52;;;;;;;23.20;12.30;;;;;;;;;;5059618;28;20040;-67
2022/11/29 12:03:51;;;;;;;18.02;12.23;;;;;;;;;;5070216;28;20024;-67
2022/11/29 12:06:45;;;;;;;16.90;10.68;;;;;;;;;;5070322;28;20547;-66
2022/11/29 12:09:18;;;;;;;15.40;9.73;;;;;;;;;;5069937;28;20040;-67
2022/11/29 12:12:08;;;;;;;12.90;8.82;;;;;;;;;;5069982;28;20388;-66
2022/11/29 12:14:54;;;;;;;;;;;;;;;;;;5070569;28;20113;-67
2022/11/29 12:17:43;;;;;;;14.15;8.93;;;;;;;;;;5070035;28;19920;-68
2022/11/29 12:20:27;;;;;;;14.23;9.52;;;;;;;;;;5070013;28;20024;-67
2022/11/29 12:22:52;;;;;;;15.30;8.93;;;;;;;;;;5052817;28;20052;-66
2022/11/29 12:25:23;;;;;;;16.08;10.32;;;;;;;;;;5080258;28;20078;-67
2022/11/29 12:27:49;;;;;;;13.90;9.48;;;;;;;;;;5065719;28;20081;-68
2022/11/29 12:30:17;;;;;;;16.27;9.80;;;;;;;;;;5090444;28;20398;-68
2022/11/29 12:32:45;;;;;;;13.63;8.98;;;;;;;;;;5090179;28;20038;-68
2022/11/29 12:35:17;;;;;;;14.20;9.18;;;;;;;;;;5093461;28;20056;-68
2022/11/29 12:37:46;;;;;;;13.30;8.98;;;;;;;;;;5093942;28;20051;-67
2022/11/29 12:40:19;;;;;;;14.10;9.02;;;;;;;;;;5093783;28;20368;-68
2022/11/29 12:43:04;;;;;;;14.95;9.68;;;;;;;;;;5093777;28;20527;-68
2022/11/29 12:46:07;;;;;;;13.82;9.23;;;;;;;;;;5093718;28;20047;-67
2022/11/29 12:49:02;;;;;;;14.07;8.60;;;;;;;;;;5093601;28;20027;-68
2022/11/29 12:51:41;;;;;;;16.17;8.73;;;;;;;;;;5093615;28;20077;-67
2022/11/29 12:54:25;;;;;;;11.07;8.57;;;;;;;;;;5093854;28;20035;-68
2022/11/29 12:57:09;;;;;;;15.77;9.25;;;;;;;;;;5093552;28;20472;-67
2022/11/29 13:00:13;;;;;;;16.05;9.55;;;;;;;;;;5093260;28;20040;-65
2022/11/29 13:02:53;;;;;;;12.93;8.60;;;;;;;;;;5065126;28;20040;-66
2022/11/29 13:05:26;;;;;;;13.48;9.20;;;;;;;;;;5093339;28;20056;-67
2022/11/29 13:08:03;;;;;;;11.50;8.55;;;;;;;;;;5093097;28;20039;-67
2022/11/29 13:10:57;;;;;;;15.73;8.20;;;;;;;;;;5093135;28;20051;-67
2022/11/29 13:13:38;;;;;;;13.20;8.63;;;;;;;;;;5092948;28;20035;-67
2022/11/29 13:16:28;;;;;;;12.35;8.38;;;;;;;;;;5092645;28;20170;-67
2022/11/29 13:19:02;;;;;;;14.43;9.07;;;;;;;;;;5091982;28;20063;-67
2022/11/29 13:21:28;;;;;;;11.73;8.43;;;;;;;;;;5092885;28;20111;-67
2022/11/29 13:24:11;;;;;;;12.13;8.65;;;;;;;;;;5074562;28;20135;-67
2022/11/29 13:26:39;;;;;;;11.68;8.45;;;;;;;;;;5092589;28;20051;-67
2022/11/29 13:29:06;;;;;;;12.32;8.73;;;;;;;;;;5091460;28;20413;-66
2022/11/29 13:31:32;;;;;;;11.07;8.50;;;;;;;;;;5092070;28;20089;-67
2022/11/29 13:34:04;;;;;;;12.65;8.40;;;;;;;;;;5092827;28;20036;-66
2022/11/29 13:36:52;;;;;;;11.75;8.18;;;;;;;;;;5057846;28;20027;-66
2022/11/29 13:39:45;;;;;;;12.93;8.70;;;;;;;;;;5092810;28;20070;-66
2022/11/29 13:42:20;;;;;;;11.30;7.95;;;;;;;;;;5074326;28;20131;-66
2022/11/29 13:45:13;;;;;;;12.82;8.52;;;;;;;;;;5074218;28;20050;-66
2022/11/29 13:47:50;;;;;;;11.98;8.57;;;;;;;;;;5092481;28;20024;-66
2022/11/29 13:50:28;;;;;;;13.45;8.40;;;;;;;;;;5092229;28;20035;-67
2022/11/29 13:53:03;;;;;;;13.82;9.48;;;;;;;;;;5073962;28;20487;-66
2022/11/29 13:55:30;;;;;;;11.95;8.50;;;;;;;;;;5092748;28;20028;-66
2022/11/29 13:58:05;;;;;;;12.13;8.43;;;;;;;;;;5074000;28;20117;-66
2022/11/29 14:00:31;;;;;;;12.45;8.98;;;;;;;;;;5092756;28;20285;-67
2022/11/29 14:03:22;;;;;;;13.75;8.73;;;;;;;;;;5092255;28;20387;-66
2022/11/29 14:06:20;;;;;;;11.63;8.25;;;;;;;;;;5092240;28;20028;-67
2022/11/29 14:08:52;;;;;;;12.18;8.55;;;;;;;;;;5074127;28;20028;-66
2022/11/29 14:11:17;;;;;;;12.82;8.43;;;;;;;;;;5080367;28;20044;-65
2022/11/29 14:14:08;;;;;;;13.77;8.73;;;;;;;;;;5071697;28;20103;-65
2022/11/29 14:16:33;;;;;;;;;;;;;;;;;;5026459;28;20067;-66
2022/11/29 14:19:11;;;;;;;13.38;9.05;;;;;;;;;;5054778;28;19975;-66
2022/11/29 14:21:55;;;;;;;11.48;8.55;;;;;;;;;;5070160;28;20036;-68
2022/11/29 14:24:35;;;;;;;12.18;8.90;;;;;;;;;;5070536;28;20554;-66
2022/11/29 14:27:08;;;;;;;13.20;8.23;;;;;;;;;;5051864;28;20040;-66
2022/11/29 14:29:52;;;;;;;12.98;8.80;;;;;;;;;;5070034;28;20775;-66
2022/11/29 14:32:28;;;;;;;12.85;8.98;;;;;;;;;;5071265;28;20028;-66
2022/11/29 14:35:09;;;;;;;11.80;8.40;;;;;;;;;;5071187;28;20048;-67
2022/11/29 14:37:43;;;;;;;12.50;8.60;;;;;;;;;;5053317;28;20031;-67
2022/11/29 14:40:24;;;;;;;13.88;9.70;;;;;;;;;;5071355;28;20046;-66
2022/11/29 14:42:51;;;;;;;11.75;8.38;;;;;;;;;;5069730;28;20028;-68
2022/11/29 14:45:26;;;;;;;11.65;7.93;;;;;;;;;;5071240;28;20024;-68
2022/11/29 14:47:52;;;;;;;13.27;9.13;;;;;;;;;;5053346;28;20035;-68
2022/11/29 14:50:39;;;;;;;12.82;9.02;;;;;;;;;;5069545;28;20028;-68
2022/11/29 14:53:25;;;;;;;13.35;8.52;;;;;;;;;;5053167;28;20415;-68
2022/11/29 14:55:50;;;;;;;11.80;8.50;;;;;;;;;;5052757;28;20028;-67
2022/11/29 14:58:19;;;;;;;12.90;8.57;;;;;;;;;;5070506;28;20024;-68
2022/11/29 15:00:48;;;;;;;13.02;9.10;;;;;;;;;;5070953;28;20092;-67
2022/11/29 15:03:20;;;;;;;12.70;8.70;;;;;;;;;;5052771;28;20028;-68
2022/11/29 15:06:05;;;;;;;13.20;8.10;;;;;;;;;;5053014;28;20035;-67
2022/11/29 15:08:33;;;;;;;14.63;9.07;;;;;;;;;;5070852;28;20028;-66
2022/11/29 15:11:10;;;;;;;12.80;8.57;;;;;;;;;;5070763;28;20021;-67
2022/11/29 15:13:41;;;;;;;13.57;8.63;;;;;;;;;;5070660;28;20028;-67
2022/11/29 15:16:27;;;;;;;12.20;8.52;;;;;;;;;;5070832;28;20027;-68
2022/11/29 15:19:24;;;;;;;13.75;8.57;;;;;;;;;;5070683;28;20052;-67
2022/11/29 15:22:06;;;;;;;12.98;8.60;;;;;;;;;;5051818;28;20082;-67
2022/11/29 15:24:49;;;;;;;13.68;8.55;;;;;;;;;;5064149;28;20395;-68
2022/11/29 15:27:16;;;;;;;13.32;8.50;;;;;;;;;;5070887;28;20029;-67
2022/11/29 15:29:47;;;;;;;12.77;8.40;;;;;;;;;;5070703;28;20078;-65
2022/11/29 15:32:17;;;;;;;;;;;;;;;;;;5070455;28;20380;-66
2022/11/29 15:34:49;;;;;;;11.82;8.13;;;;;;;;;;5052401;28;19920;-67
2022/11/29 15:37:43;;;;;;;12.25;7.93;;;;;;;;;;5070883;28;20029;-67
2022/11/29 15:40:10;;;;;;;11.68;7.90;;;;;;;;;;5067945;28;20094;-67